createdAt,value
2022-10-21T00:00:52.130Z,10.00
2022-10-21T00:03:21.013Z,9.20
2022-10-21T00:05:49.681Z,10.37
2022-10-21T00:08:20.065Z,10.93
2022-10-21T00:10:52.490Z,9.67
2022-10-21T00:13:20.389Z,9.90
2022-10-21T00:15:58.928Z,10.40
2022-10-21T00:18:26.530Z,9.97
2022-10-21T00:20:54.203Z,9.77
2022-10-21T00:23:23.664Z,10.07
2022-10-21T00:25:51.400Z,11.73
2022-10-21T00:28:18.967Z,11.00
2022-10-21T00:30:47.345Z,11.03
2022-10-21T00:33:15.339Z,10.23
2022-10-21T00:35:42.943Z,9.77
2022-10-21T00:38:10.950Z,10.67
2022-10-21T00:40:39.928Z,9.40
2022-10-21T00:43:07.559Z,10.10
2022-10-21T00:45:35.222Z,10.10
2022-10-21T00:48:06.576Z,9.87
2022-10-21T00:50:40.281Z,9.90
2022-10-21T00:53:13.850Z,10.10
2022-10-21T00:55:48.460Z,10.03
2022-10-21T00:58:19.208Z,10.13
2022-10-21T01:00:46.840Z,10.43
2022-10-21T01:03:15.492Z,10.17
2022-10-21T01:05:43.984Z,10.13
2022-10-21T01:08:11.633Z,10.60
2022-10-21T01:10:39.499Z,10.63
2022-10-21T01:13:20.085Z,11.13
2022-10-21T01:15:56.618Z,10.47
2022-10-21T01:18:32.271Z,11.47
2022-10-21T01:21:11.372Z,11.17
2022-10-21T01:24:04.038Z,10.50
2022-10-21T01:26:58.673Z,11.07
2022-10-21T01:30:06.132Z,9.23
2022-10-21T01:32:47.036Z,10.13
2022-10-21T01:35:22.276Z,11.43
2022-10-21T01:37:58.755Z,10.57
2022-10-21T01:40:31.888Z,10.87
2022-10-21T01:43:03.829Z,11.83
2022-10-21T01:45:37.179Z,10.80
2022-10-21T01:48:10.205Z,11.90
2022-10-21T01:50:43.409Z,12.30
2022-10-21T01:53:13.953Z,11.63
2022-10-21T01:55:42.761Z,11.47
2022-10-21T01:58:14.741Z,12.60
2022-10-21T02:00:43.600Z,10.27
2022-10-21T02:03:20.569Z,11.47
2022-10-21T02:05:48.197Z,10.20
2022-10-21T02:08:15.941Z,11.73
2022-10-21T02:10:46.926Z,11.93
2022-10-21T02:13:18.546Z,9.90
2022-10-21T02:15:46.674Z,10.67
2022-10-21T02:18:21.472Z,10.17
2022-10-21T02:20:53.709Z,10.80
2022-10-21T02:23:27.494Z,10.90
2022-10-21T02:25:55.281Z,10.80
2022-10-21T02:28:23.085Z,9.80
2022-10-21T02:31:00.658Z,10.23
2022-10-21T02:33:40.167Z,11.70
2022-10-21T02:36:15.346Z,10.20
2022-10-21T02:38:48.237Z,10.10
2022-10-21T02:41:20.067Z,11.03
2022-10-21T02:43:49.990Z,11.20
2022-10-21T02:46:17.792Z,10.27
2022-10-21T02:48:48.482Z,11.20
2022-10-21T02:51:16.395Z,11.20
2022-10-21T02:53:44.406Z,9.33
2022-10-21T02:56:12.070Z,9.70
2022-10-21T02:58:39.704Z,9.67
2022-10-21T03:01:07.730Z,9.57
2022-10-21T03:03:35.316Z,8.60
2022-10-21T03:06:04.762Z,10.90
2022-10-21T03:08:32.422Z,9.77
2022-10-21T03:11:00.259Z,9.10
2022-10-21T03:13:28.028Z,7.97
2022-10-21T03:15:55.717Z,8.90
2022-10-21T03:18:23.281Z,10.07
2022-10-21T03:20:51.564Z,8.37
2022-10-21T03:23:21.115Z,8.63
2022-10-21T03:25:48.807Z,9.50
2022-10-21T03:28:20.964Z,7.97
2022-10-21T03:30:48.701Z,7.80
2022-10-21T03:33:16.314Z,8.17
2022-10-21T03:35:43.919Z,8.50
2022-10-21T03:38:11.728Z,8.77
2022-10-21T03:40:40.876Z,8.77
2022-10-21T03:43:08.609Z,8.83
2022-10-21T03:45:36.322Z,9.43
2022-10-21T03:48:04.179Z,7.90
2022-10-21T03:50:31.783Z,7.37
2022-10-21T03:53:02.392Z,8.30
2022-10-21T03:55:37.648Z,8.70
2022-10-21T03:58:06.753Z,8.80
2022-10-21T04:00:34.796Z,8.67
2022-10-21T04:03:02.474Z,9.17
2022-10-21T04:05:30.212Z,8.80
2022-10-21T04:07:57.800Z,7.97
2022-10-21T04:10:25.437Z,9.10
2022-10-21T04:12:53.005Z,7.80
2022-10-21T04:15:22.004Z,7.00
2022-10-21T04:17:49.694Z,9.20
2022-10-21T04:20:17.471Z,7.97
2022-10-21T04:22:45.041Z,6.93
2022-10-21T04:25:12.706Z,7.77
2022-10-21T04:27:40.338Z,8.10
2022-10-21T04:30:09.584Z,8.27
2022-10-21T04:32:38.864Z,8.70
2022-10-21T04:35:07.206Z,7.53
2022-10-21T04:37:35.091Z,8.10
2022-10-21T04:40:02.758Z,8.80
2022-10-21T04:42:30.473Z,9.40
2022-10-21T04:44:58.181Z,9.43
2022-10-21T04:47:25.992Z,8.73
2022-10-21T04:49:54.909Z,8.40
2022-10-21T04:52:22.553Z,9.63
2022-10-21T04:54:50.221Z,9.20
2022-10-21T04:57:17.738Z,10.47
2022-10-21T04:59:45.300Z,10.23
2022-10-21T05:02:13.696Z,8.87
2022-10-21T05:04:41.268Z,9.20
2022-10-21T05:07:10.567Z,10.37
2022-10-21T05:09:38.234Z,9.30
2022-10-21T05:12:06.031Z,9.20
2022-10-21T05:14:33.792Z,9.53
2022-10-21T05:17:01.491Z,9.23
2022-10-21T05:19:31.285Z,9.40
2022-10-21T05:21:59.644Z,8.30
2022-10-21T05:24:29.066Z,9.00
2022-10-21T05:26:56.966Z,9.07
2022-10-21T05:29:24.739Z,8.10
2022-10-21T05:31:52.389Z,8.97
2022-10-21T05:34:20.098Z,8.00
2022-10-21T05:36:48.582Z,8.60
2022-10-21T05:39:16.684Z,9.63
2022-10-21T05:41:47.940Z,8.40
2022-10-21T05:44:16.197Z,8.53
2022-10-21T05:46:43.813Z,7.60
2022-10-21T05:49:11.412Z,7.37
2022-10-21T05:51:39.168Z,7.97
2022-10-21T05:54:06.881Z,8.80
2022-10-21T05:56:34.599Z,9.00
2022-10-21T05:59:05.494Z,9.40
2022-10-21T06:01:36.566Z,9.30
2022-10-21T06:04:04.449Z,10.03
2022-10-21T06:06:32.203Z,9.37
2022-10-21T06:09:00.572Z,9.97
2022-10-21T06:11:28.221Z,9.07
2022-10-21T06:13:55.882Z,8.97
2022-10-21T06:16:24.865Z,10.97
2022-10-21T06:18:52.525Z,10.00
2022-10-21T06:21:20.182Z,10.50
2022-10-21T06:23:47.963Z,10.13
2022-10-21T06:26:16.993Z,10.57
2022-10-21T06:28:45.321Z,11.30
2022-10-21T06:31:15.976Z,9.30
2022-10-21T06:33:45.363Z,12.10
2022-10-21T06:36:13.103Z,11.47
2022-10-21T06:38:41.189Z,10.50
2022-10-21T06:41:13.207Z,8.70
2022-10-21T06:43:41.801Z,8.77
2022-10-21T06:46:11.200Z,8.70
2022-10-21T06:48:39.922Z,9.23
2022-10-21T06:51:11.475Z,8.97
2022-10-21T06:53:39.993Z,8.20
2022-10-21T06:56:10.206Z,9.23
2022-10-21T06:58:39.666Z,8.10
2022-10-21T07:01:16.555Z,7.47
2022-10-21T07:03:56.286Z,8.63
2022-10-21T07:06:25.636Z,8.20
2022-10-21T07:08:58.360Z,8.33
2022-10-21T07:11:26.848Z,8.37
2022-10-21T07:13:54.716Z,8.07
2022-10-21T07:16:25.309Z,8.50
2022-10-21T07:18:54.628Z,7.83
2022-10-21T07:21:23.958Z,9.27
2022-10-21T07:23:56.656Z,8.40
2022-10-21T07:26:28.495Z,9.20
2022-10-21T07:28:58.689Z,7.27
2022-10-21T07:31:26.569Z,8.87
2022-10-21T07:33:54.897Z,8.13
2022-10-21T07:36:24.955Z,7.90
2022-10-21T07:38:55.510Z,8.60
2022-10-21T07:41:26.350Z,8.60
2022-10-21T07:43:55.568Z,8.67
2022-10-21T07:46:23.873Z,7.40
2022-10-21T07:48:52.448Z,7.77
2022-10-21T07:51:25.693Z,9.60
2022-10-21T07:53:58.833Z,9.00
2022-10-21T07:56:30.183Z,8.13
2022-10-21T07:58:58.608Z,9.10
2022-10-21T08:01:26.549Z,8.40
2022-10-21T08:03:55.884Z,9.40
2022-10-21T08:06:25.470Z,9.20
2022-10-21T08:08:53.859Z,8.40
2022-10-21T08:11:24.419Z,8.63
2022-10-21T08:13:52.150Z,10.43
2022-10-21T08:16:20.052Z,8.20
2022-10-21T08:18:48.240Z,8.13
2022-10-21T08:21:16.201Z,8.90
2022-10-21T08:23:43.843Z,9.20
2022-10-21T08:26:13.747Z,8.20
2022-10-21T08:28:43.652Z,8.13
2022-10-21T08:31:14.124Z,8.50
2022-10-21T08:33:42.240Z,8.50
2022-10-21T08:36:13.545Z,8.00
2022-10-21T08:38:44.684Z,8.67
2022-10-21T08:41:30.127Z,9.80
2022-10-21T08:44:04.802Z,9.20
2022-10-21T08:46:36.180Z,8.93
2022-10-21T08:49:08.211Z,7.67
2022-10-21T08:51:40.871Z,8.40
2022-10-21T08:54:15.125Z,8.40
2022-10-21T08:56:43.009Z,8.40
2022-10-21T08:59:20.198Z,8.00
2022-10-21T09:01:57.520Z,8.50
2022-10-21T09:04:34.533Z,8.40
2022-10-21T09:07:11.271Z,8.10
2022-10-21T09:09:48.170Z,7.40
2022-10-21T09:12:24.160Z,7.10
2022-10-21T09:15:15.466Z,7.67
2022-10-21T09:17:55.707Z,6.97
2022-10-21T09:20:34.258Z,6.73
2022-10-21T09:23:12.357Z,7.40
2022-10-21T09:25:51.969Z,7.50
2022-10-21T09:28:19.761Z,7.17
2022-10-21T09:30:49.140Z,5.73
2022-10-21T09:33:23.197Z,8.00
2022-10-21T09:35:55.008Z,6.37
2022-10-21T09:38:27.059Z,5.93
2022-10-21T09:41:03.041Z,6.23
2022-10-21T09:43:31.680Z,7.60
2022-10-21T09:46:08.889Z,6.57
2022-10-21T09:49:08.116Z,5.93
2022-10-21T09:51:40.069Z,5.83
2022-10-21T09:54:11.500Z,5.53
2022-10-21T09:56:43.985Z,5.87
2022-10-21T09:59:13.733Z,6.10
2022-10-21T10:01:44.275Z,5.53
2022-10-21T10:04:14.114Z,5.57
2022-10-21T10:06:43.553Z,5.37
2022-10-21T10:09:17.045Z,5.70
2022-10-21T10:11:54.678Z,5.77
2022-10-21T10:14:29.998Z,5.73
2022-10-21T10:17:19.464Z,5.10
2022-10-21T10:20:16.137Z,4.90
2022-10-21T10:22:45.138Z,5.00
2022-10-21T10:25:21.561Z,5.53
2022-10-21T10:27:51.110Z,5.30
2022-10-21T10:30:19.380Z,5.27
2022-10-21T10:32:50.271Z,5.10
2022-10-21T10:35:30.512Z,5.20
2022-10-21T10:38:01.423Z,4.27
2022-10-21T10:40:32.692Z,4.90
2022-10-21T10:43:05.684Z,4.93
2022-10-21T10:45:33.573Z,4.93
2022-10-21T10:48:04.618Z,4.40
2022-10-21T10:50:43.238Z,4.83
2022-10-21T10:53:23.330Z,4.50
2022-10-21T10:56:00.541Z,4.50
2022-10-21T10:58:32.681Z,4.47
2022-10-21T11:01:03.457Z,5.80
2022-10-21T11:03:41.325Z,5.13
2022-10-21T11:06:16.880Z,5.00
2022-10-21T11:08:49.824Z,5.30
2022-10-21T11:11:25.802Z,4.70
2022-10-21T11:13:53.827Z,4.37
2022-10-21T11:16:59.412Z,4.87
2022-10-21T11:19:36.491Z,4.77
2022-10-21T11:22:14.006Z,5.40
2022-10-21T11:24:55.234Z,4.13
2022-10-21T11:27:33.470Z,4.83
2022-10-21T11:30:06.946Z,4.63
2022-10-21T11:32:51.604Z,5.43
2022-10-21T11:35:34.808Z,5.23
2022-10-21T11:38:36.092Z,4.33
2022-10-21T11:41:12.416Z,4.97
2022-10-21T11:43:50.658Z,4.70
2022-10-21T11:46:23.831Z,4.73
2022-10-21T11:49:04.573Z,4.20
2022-10-21T11:51:44.667Z,4.60
2022-10-21T11:55:02.045Z,3.77
2022-10-21T11:57:37.364Z,4.90
2022-10-21T12:00:13.179Z,5.17
2022-10-21T12:02:44.338Z,4.60
2022-10-21T12:05:25.283Z,4.97
2022-10-21T12:08:13.809Z,5.03
2022-10-21T12:10:47.419Z,4.73
2022-10-21T12:13:21.289Z,4.70
2022-10-21T12:15:52.112Z,4.67
2022-10-21T12:18:23.016Z,4.37
2022-10-21T12:20:53.710Z,4.60
2022-10-21T12:23:25.334Z,5.03
2022-10-21T12:26:14.385Z,4.30
2022-10-21T12:28:46.975Z,4.60
2022-10-21T12:31:28.138Z,4.93
2022-10-21T12:33:56.636Z,4.77
2022-10-21T12:36:42.692Z,4.83
2022-10-21T12:39:39.277Z,4.40
2022-10-21T12:42:13.156Z,5.00
2022-10-21T12:44:46.364Z,4.80
2022-10-21T12:47:26.573Z,4.00
2022-10-21T12:50:19.329Z,4.93
2022-10-21T12:52:56.768Z,4.97
2022-10-21T12:55:28.291Z,5.10
2022-10-21T12:58:01.304Z,5.00
2022-10-21T13:00:52.774Z,5.10
2022-10-21T13:03:22.513Z,5.23
2022-10-21T13:06:03.520Z,5.70
2022-10-21T13:08:41.150Z,4.83
2022-10-21T13:11:23.818Z,5.30
2022-10-21T13:14:24.864Z,5.37
2022-10-21T13:16:52.545Z,4.73
2022-10-21T13:19:34.908Z,4.87
2022-10-21T13:22:11.499Z,4.90
2022-10-21T13:24:40.240Z,4.97
2022-10-21T13:27:28.817Z,4.97
2022-10-21T13:29:57.442Z,5.50
2022-10-21T13:32:31.187Z,5.57
2022-10-21T13:35:32.129Z,6.10
2022-10-21T13:38:04.415Z,5.77
2022-10-21T13:40:38.766Z,5.30
2022-10-21T13:43:14.992Z,6.50
2022-10-21T13:45:49.018Z,4.73
2022-10-21T13:48:19.772Z,5.63
2022-10-21T13:50:50.600Z,5.30
2022-10-21T13:53:43.525Z,5.67
2022-10-21T13:56:20.687Z,4.90
2022-10-21T13:58:50.484Z,4.97
2022-10-21T14:01:21.851Z,5.37
2022-10-21T14:03:50.392Z,5.63
2022-10-21T14:06:26.127Z,5.50
2022-10-21T14:08:55.703Z,5.33
2022-10-21T14:11:28.579Z,4.80
2022-10-21T14:14:03.556Z,4.60
2022-10-21T14:16:34.494Z,5.37
2022-10-21T14:19:08.101Z,5.07
2022-10-21T14:21:38.429Z,5.30
2022-10-21T14:24:07.352Z,4.53
2022-10-21T14:26:35.242Z,4.40
2022-10-21T14:29:06.489Z,5.53
2022-10-21T14:31:34.287Z,5.13
2022-10-21T14:34:02.402Z,4.80
2022-10-21T14:36:31.826Z,7.00
2022-10-21T14:39:03.779Z,5.47
2022-10-21T14:41:35.641Z,5.37
2022-10-21T14:44:15.214Z,4.50
2022-10-21T14:46:44.786Z,4.97
2022-10-21T14:49:23.376Z,4.90
2022-10-21T14:51:57.248Z,4.33
2022-10-21T14:54:30.317Z,4.97
2022-10-21T14:56:59.977Z,4.87
2022-10-21T14:59:37.563Z,4.60
2022-10-21T15:02:06.561Z,5.00
2022-10-21T15:04:51.651Z,4.80
2022-10-21T15:07:28.641Z,5.17
2022-10-21T15:10:15.499Z,4.97
2022-10-21T15:12:44.971Z,5.83
2022-10-21T15:15:53.283Z,4.30
2022-10-21T15:18:24.244Z,5.30
2022-10-21T15:20:57.811Z,6.60
2022-10-21T15:23:28.586Z,6.33
2022-10-21T15:26:00.800Z,4.83
2022-10-21T15:28:33.986Z,5.27
2022-10-21T15:31:05.509Z,5.53
2022-10-21T15:33:33.229Z,4.73
2022-10-21T15:36:02.453Z,6.00
2022-10-21T15:38:30.081Z,5.83
2022-10-21T15:40:57.861Z,5.10
2022-10-21T15:43:25.507Z,4.93
2022-10-21T15:45:53.529Z,4.17
2022-10-21T15:48:23.106Z,5.53
2022-10-21T15:50:50.797Z,5.10
2022-10-21T15:53:18.449Z,5.70
2022-10-21T15:55:46.057Z,4.97
2022-10-21T15:58:13.764Z,5.90
2022-10-21T16:00:41.968Z,6.10
2022-10-21T16:03:09.898Z,5.73
2022-10-21T16:05:39.618Z,4.80
2022-10-21T16:08:07.296Z,4.67
2022-10-21T16:10:37.446Z,4.43
2022-10-21T16:13:05.368Z,4.70
2022-10-21T16:15:32.969Z,4.87
2022-10-21T16:18:01.006Z,4.53
2022-10-21T16:20:31.171Z,5.00
2022-10-21T16:23:03.029Z,4.80
2022-10-21T16:25:31.307Z,4.67
2022-10-21T16:27:59.157Z,4.63
2022-10-21T16:30:29.841Z,5.00
2022-10-21T16:32:58.159Z,5.33
2022-10-21T16:35:26.229Z,4.70
2022-10-21T16:37:55.700Z,6.20
2022-10-21T16:40:27.549Z,5.83
2022-10-21T16:42:55.356Z,4.33
2022-10-21T16:45:28.447Z,5.03
2022-10-21T16:47:57.860Z,5.40
2022-10-21T16:50:30.974Z,4.80
2022-10-21T16:52:58.673Z,4.03
2022-10-21T16:55:27.916Z,5.10
2022-10-21T16:57:55.635Z,5.03
2022-10-21T17:00:23.513Z,4.60
2022-10-21T17:02:52.681Z,6.60
2022-10-21T17:05:20.742Z,4.90
2022-10-21T17:07:48.708Z,5.07
2022-10-21T17:10:16.592Z,4.50
2022-10-21T17:12:46.271Z,5.00
2022-10-21T17:15:16.588Z,4.30
2022-10-21T17:17:44.458Z,4.70
2022-10-21T17:20:12.660Z,4.80
2022-10-21T17:22:40.535Z,6.00
2022-10-21T17:25:09.083Z,5.10
2022-10-21T17:27:37.284Z,5.57
2022-10-21T17:30:07.961Z,4.73
2022-10-21T17:32:36.415Z,5.07
2022-10-21T17:35:04.280Z,4.30
2022-10-21T17:37:32.009Z,4.33
2022-10-21T17:39:59.890Z,5.23
2022-10-21T17:42:27.838Z,5.50
2022-10-21T17:44:55.689Z,5.53
2022-10-21T17:47:24.955Z,5.20
2022-10-21T17:49:52.781Z,6.40
2022-10-21T17:52:20.679Z,5.33
2022-10-21T17:54:48.494Z,5.23
2022-10-21T17:57:16.344Z,5.70
2022-10-21T17:59:44.724Z,5.73
2022-10-21T18:02:12.626Z,6.27
2022-10-21T18:04:43.355Z,5.87
2022-10-21T18:07:12.344Z,5.50
2022-10-21T18:09:42.207Z,4.53
2022-10-21T18:12:11.089Z,5.40
2022-10-21T18:14:39.117Z,5.20
2022-10-21T18:17:08.473Z,6.10
2022-10-21T18:19:36.331Z,5.60
2022-10-21T18:22:06.013Z,5.80
2022-10-21T18:24:34.478Z,5.87
2022-10-21T18:27:02.733Z,5.37
2022-10-21T18:29:30.510Z,4.53
2022-10-21T18:31:58.403Z,5.17
2022-10-21T18:34:26.667Z,6.00
2022-10-21T18:36:56.467Z,4.80
2022-10-21T18:39:25.797Z,5.20
2022-10-21T18:41:54.933Z,5.07
2022-10-21T18:44:23.107Z,6.27
2022-10-21T18:46:53.715Z,5.07
2022-10-21T18:49:23.825Z,4.77
2022-10-21T18:51:51.719Z,5.67
2022-10-21T18:54:19.675Z,5.27
2022-10-21T18:56:48.947Z,4.50
2022-10-21T18:59:16.797Z,5.13
2022-10-21T19:01:44.666Z,5.03
2022-10-21T19:06:43.463Z,4.90
2022-10-21T19:09:14.047Z,5.30
2022-10-21T19:11:42.177Z,5.83
2022-10-21T19:14:14.143Z,6.00
2022-10-21T19:16:43.203Z,5.60
2022-10-21T19:19:11.008Z,5.23
2022-10-21T19:21:39.146Z,5.23
2022-10-21T19:24:07.527Z,5.27
2022-10-21T19:26:37.673Z,4.87
2022-10-21T19:29:07.326Z,5.40
2022-10-21T19:31:38.533Z,5.20
2022-10-21T19:34:06.731Z,5.27
2022-10-21T19:36:34.880Z,4.40
2022-10-21T19:39:02.768Z,4.90
2022-10-21T19:41:30.704Z,4.30
2022-10-21T19:43:59.084Z,4.87
2022-10-21T19:46:28.769Z,5.60
2022-10-21T19:48:58.725Z,5.13
2022-10-21T19:51:27.601Z,5.80
2022-10-21T19:53:56.321Z,4.83
2022-10-21T19:56:29.575Z,4.63
2022-10-21T19:58:58.977Z,4.37
2022-10-21T20:01:27.396Z,6.33
2022-10-21T20:03:57.190Z,4.00
2022-10-21T20:06:27.548Z,4.37
2022-10-21T20:08:56.223Z,4.13
2022-10-21T20:11:24.329Z,5.20
2022-10-21T20:13:52.526Z,4.60
2022-10-21T20:16:21.803Z,4.90
2022-10-21T20:18:50.129Z,4.93
2022-10-21T20:21:19.767Z,5.30
2022-10-21T20:23:47.557Z,4.60
2022-10-21T20:26:15.297Z,4.10
2022-10-21T20:28:43.170Z,4.73
2022-10-21T20:31:12.662Z,5.10
2022-10-21T20:33:42.761Z,5.10
2022-10-21T20:36:13.667Z,5.00
2022-10-21T20:38:42.798Z,6.03
2022-10-21T20:41:13.688Z,5.60
2022-10-21T20:43:42.641Z,4.00
2022-10-21T20:46:13.074Z,5.80
2022-10-21T20:48:42.925Z,4.67
2022-10-21T20:51:12.326Z,5.30
2022-10-21T20:53:40.561Z,4.70
2022-10-21T20:56:09.821Z,5.70
2022-10-21T20:58:38.184Z,5.73
2022-10-21T21:01:09.829Z,5.30
2022-10-21T21:03:39.409Z,5.20
2022-10-21T21:06:07.920Z,5.27
2022-10-21T21:08:36.454Z,5.80
2022-10-21T21:11:06.339Z,5.40
2022-10-21T21:13:37.826Z,4.93
2022-10-21T21:16:08.078Z,5.33
2022-10-21T21:18:36.596Z,4.23
2022-10-21T21:21:07.742Z,4.40
2022-10-21T21:23:36.073Z,4.70
2022-10-21T21:26:05.269Z,4.27
2022-10-21T21:28:35.570Z,4.30
2022-10-21T21:31:06.607Z,4.47
2022-10-21T21:33:34.999Z,4.70
2022-10-21T21:36:04.621Z,5.57
2022-10-21T21:38:34.045Z,4.23
2022-10-21T21:41:04.477Z,5.00
2022-10-21T21:43:35.092Z,4.60
2022-10-21T21:46:03.372Z,4.43
2022-10-21T21:48:33.406Z,4.93
2022-10-21T21:51:01.395Z,4.37
2022-10-21T21:53:29.084Z,4.00
2022-10-21T21:56:02.199Z,5.13
2022-10-21T21:58:30.617Z,4.90
2022-10-21T22:00:58.278Z,5.10
2022-10-21T22:03:25.902Z,4.70
2022-10-21T22:05:54.861Z,4.70
2022-10-21T22:08:22.446Z,5.50
2022-10-21T22:10:50.146Z,5.10
2022-10-21T22:13:17.685Z,4.70
2022-10-21T22:15:48.803Z,4.50
2022-10-21T22:18:16.608Z,4.73
2022-10-21T22:20:44.238Z,6.03
2022-10-21T22:23:13.282Z,4.80
2022-10-21T22:25:40.911Z,5.90
2022-10-21T22:28:08.840Z,4.70
2022-10-21T22:30:36.491Z,5.57
2022-10-21T22:33:04.207Z,5.00
2022-10-21T22:35:32.196Z,4.80
2022-10-21T22:37:59.757Z,5.63
2022-10-21T22:40:28.725Z,4.60
2022-10-21T22:42:56.414Z,4.50
2022-10-21T22:45:24.033Z,5.70
2022-10-21T22:47:51.641Z,5.50
2022-10-21T22:50:19.560Z,6.60
2022-10-21T22:52:47.552Z,6.87
2022-10-21T22:55:15.385Z,8.67
2022-10-21T22:57:44.618Z,8.60
2022-10-21T23:00:14.431Z,9.30
2022-10-21T23:02:42.493Z,10.43
2022-10-21T23:05:10.388Z,8.10
2022-10-21T23:07:38.160Z,10.47
2022-10-21T23:10:08.420Z,10.27
2022-10-21T23:12:36.760Z,10.00
2022-10-21T23:15:08.458Z,8.17
2022-10-21T23:17:36.271Z,9.30
2022-10-21T23:20:05.012Z,8.40
2022-10-21T23:22:32.597Z,8.97
2022-10-21T23:25:00.194Z,9.40
2022-10-21T23:27:28.239Z,8.87
2022-10-21T23:29:55.852Z,7.87
2022-10-21T23:32:24.956Z,7.57
2022-10-21T23:34:53.442Z,6.43
2022-10-21T23:37:22.437Z,7.87
2022-10-21T23:39:50.250Z,7.67
2022-10-21T23:42:18.027Z,6.37
2022-10-21T23:44:45.691Z,5.13
2022-10-21T23:47:13.511Z,6.20
2022-10-21T23:49:42.696Z,5.93
2022-10-21T23:52:10.580Z,5.90
2022-10-21T23:54:38.297Z,5.10
2022-10-21T23:57:06.331Z,4.80
2022-10-21T23:59:34.294Z,4.33
